Time;durP1;ratioP1;P1;durP2;ratioP2;P2;SDS_P1;SDS_P2;PMS_P1;PMS_P2;Temp;Humidity;BMP_temperature;BMP_pressure;BME280_temperature;BME280_humidity;BME280_pressure;Samples;Min_cycle;Max_cycle;Signal;HPM_P1;HPM_P2
2022/08/17 00:01:08;;;;;;;4.25;2.58;;;;;;;21.76;48.84;93680.53;5062974;28;20331;-75
2022/08/17 00:03:38;;;;;;;8.65;2.95;;;;;;;21.76;49.03;93684.03;5062894;28;20100;-75
2022/08/17 00:06:12;;;;;;;5.80;2.85;;;;;;;21.76;49.40;93689.44;5063282;28;20021;-75
2022/08/17 00:08:45;;;;;;;3.67;2.40;;;;;;;21.76;49.28;93684.03;5063212;28;20100;-76
2022/08/17 00:11:21;;;;;;;5.35;2.83;;;;;;;21.75;49.43;93687.13;5063009;28;20051;-76
2022/08/17 00:13:50;;;;;;;5.93;2.75;;;;;;;21.80;49.56;93689.44;5061785;28;20056;-76
2022/08/17 00:16:20;;;;;;;5.97;3.15;;;;;;;21.82;51.08;93693.31;5062262;28;20075;-77
2022/08/17 00:18:46;;;;;;;16.23;3.10;;;;;;;21.79;51.58;93694.09;5062806;28;20029;-74
2022/08/17 00:21:12;;;;;;;7.50;3.42;;;;;;;21.76;51.86;93686.72;5062709;28;20052;-74
2022/08/17 00:23:42;;;;;;;8.70;3.75;;;;;;;21.73;52.29;93692.94;5062545;28;20021;-74
2022/08/17 00:26:08;;;;;;;9.23;3.47;;;;;;;21.72;52.71;93699.53;5062376;28;20021;-74
2022/08/17 00:28:34;;;;;;;5.65;3.17;;;;;;;21.65;53.61;93694.09;5062762;28;20013;-76
2022/08/17 00:30:59;;;;;;;13.25;3.47;;;;;;;21.58;53.46;93688.69;5062670;28;20316;-77
2022/08/17 00:33:28;;;;;;;7.45;3.97;;;;;;;21.50;53.43;93692.53;5062617;28;20278;-76
2022/08/17 00:35:55;;;;;;;6.68;3.20;;;;;;;21.42;53.60;93692.53;5062773;28;20021;-77
2022/08/17 00:38:21;;;;;;;9.98;3.42;;;;;;;21.37;53.94;93698.31;5062828;28;20060;-77
2022/08/17 00:40:48;;;;;;;8.60;3.85;;;;;;;21.36;53.93;93691.31;5062509;28;20057;-77
2022/08/17 00:43:48;;;;;;;8.82;3.38;;;;;;;21.32;54.16;93682.41;5062589;28;20041;-74
2022/08/17 00:46:20;;;;;;;8.05;3.63;;;;;;;21.24;54.04;93689.00;5061368;28;20221;-76
2022/08/17 00:48:46;;;;;;;;;;;;;;;21.15;54.52;93677.75;5063083;28;20021;-76
2022/08/17 00:51:17;;;;;;;9.27;3.15;;;;;;;21.07;54.69;93676.97;5062416;28;19976;-76
2022/08/17 00:53:48;;;;;;;13.27;3.38;;;;;;;21.02;55.10;93680.84;5062630;28;20033;-77
2022/08/17 00:56:21;;;;;;;8.07;3.90;;;;;;;20.98;55.12;93680.03;5062661;28;20079;-76
2022/08/17 00:58:48;;;;;;;6.38;3.65;;;;;;;20.87;54.96;93673.81;5062511;28;20020;-76
2022/08/17 01:01:14;;;;;;;4.72;3.13;;;;;;;20.84;55.28;93680.78;5062642;28;20056;-76
2022/08/17 01:03:42;;;;;;;10.77;3.17;;;;;;;20.75;55.76;93680.34;5062543;28;20205;-76
2022/08/17 01:06:08;;;;;;;5.20;3.20;;;;;;;20.70;55.63;93674.53;5062191;28;20024;-76
2022/08/17 01:08:35;;;;;;;5.25;3.22;;;;;;;20.68;55.55;93682.25;5062457;28;20020;-76
2022/08/17 01:11:01;;;;;;;4.57;3.40;;;;;;;20.64;55.27;93674.13;5062253;28;20315;-76
2022/08/17 01:13:31;;;;;;;6.22;3.08;;;;;;;20.62;54.52;93679.91;5062373;28;20021;-76
2022/08/17 01:16:04;;;;;;;6.53;3.45;;;;;;;20.61;54.99;93677.59;5062187;28;20048;-76
2022/08/17 01:18:31;;;;;;;5.53;3.03;;;;;;;20.60;54.69;93686.88;5062442;28;20327;-76
2022/08/17 01:21:13;;;;;;;5.47;3.35;;;;;;;20.59;53.88;93688.78;5062066;28;20032;-76
2022/08/17 01:23:41;;;;;;;7.13;3.13;;;;;;;20.59;54.81;93679.91;5062430;28;20025;-76
2022/08/17 01:26:07;;;;;;;5.22;2.78;;;;;;;20.58;54.50;93687.25;5062429;28;20083;-75
2022/08/17 01:28:35;;;;;;;14.50;5.80;;;;;;;20.59;53.84;93677.97;5064902;28;20254;-76
2022/08/17 01:31:04;;;;;;;5.25;3.25;;;;;;;20.61;53.81;93683.00;5066179;28;20263;-76
2022/08/17 01:33:30;;;;;;;5.47;3.30;;;;;;;20.58;53.93;93679.13;5065825;28;20024;-76
2022/08/17 01:35:55;;;;;;;8.40;3.42;;;;;;;20.58;54.07;93679.13;5065667;28;20021;-76
2022/08/17 01:38:22;;;;;;;5.72;3.30;;;;;;;20.55;54.79;93681.78;5065977;28;20311;-76
2022/08/17 01:40:56;;;;;;;7.95;2.90;;;;;;;20.54;55.12;93675.59;5065835;28;20028;-76
2022/08/17 01:43:27;;;;;;;4.05;2.85;;;;;;;20.49;55.84;93669.78;5065616;28;20021;-76
2022/08/17 01:45:55;;;;;;;7.15;3.25;;;;;;;20.44;55.95;93673.63;5065790;28;20025;-76
2022/08/17 01:48:22;;;;;;;5.88;3.05;;;;;;;20.39;56.11;93674.78;5065694;28;20025;-76
2022/08/17 01:50:50;;;;;;;7.88;3.03;;;;;;;20.32;56.28;93665.84;5065322;28;20080;-76
2022/08/17 01:53:35;;;;;;;8.32;3.28;;;;;;;20.28;56.37;93673.16;5065518;28;20223;-76
2022/08/17 01:56:15;;;;;;;8.82;3.25;;;;;;;20.23;56.24;93677.00;5065387;28;20040;-76
2022/08/17 01:58:42;;;;;;;7.10;2.80;;;;;;;20.18;56.38;93671.94;5065523;28;20067;-76
2022/08/17 02:01:08;;;;;;;6.95;3.10;;;;;;;20.09;57.10;93674.19;5065285;28;20025;-75
2022/08/17 02:03:36;;;;;;;8.75;2.92;;;;;;;20.02;57.17;93677.66;5065270;28;20044;-76
2022/08/17 02:06:03;;;;;;;6.45;2.95;;;;;;;19.99;57.00;93681.13;5065215;28;20027;-76
2022/08/17 02:08:34;;;;;;;8.80;3.35;;;;;;;19.96;57.32;93679.16;5065378;28;20017;-76
2022/08/17 02:11:02;;;;;;;9.45;3.08;;;;;;;19.89;57.52;93688.00;5065325;28;20041;-76
2022/08/17 02:13:28;;;;;;;5.00;3.30;;;;;;;19.83;57.77;93687.56;5065238;28;20079;-76
2022/08/17 02:15:55;;;;;;;6.47;3.80;;;;;;;19.84;57.96;93688.34;5065000;28;20109;-76
2022/08/17 02:18:21;;;;;;;10.15;3.38;;;;;;;19.81;58.27;93686.41;5065209;28;20029;-76
2022/08/17 02:20:46;;;;;;;6.95;4.00;;;;;;;19.80;58.33;93703.75;5065134;28;20029;-77
2022/08/17 02:23:13;;;;;;;6.13;3.83;;;;;;;19.75;58.68;93690.59;5065274;28;20036;-77
2022/08/17 02:25:42;;;;;;;7.35;3.45;;;;;;;19.69;58.95;93690.16;5064964;28;20056;-74
2022/08/17 02:28:08;;;;;;;8.05;3.40;;;;;;;19.67;59.30;93689.75;5064902;28;20059;-75
2022/08/17 02:30:35;;;;;;;6.25;3.75;;;;;;;19.67;59.21;93691.69;5064873;28;20219;-75
2022/08/17 02:33:01;;;;;;;8.27;3.55;;;;;;;19.62;60.10;93690.06;5064715;28;20025;-75
2022/08/17 02:35:27;;;;;;;7.50;3.80;;;;;;;19.56;60.36;93691.56;5064592;28;20060;-75
2022/08/17 02:37:52;;;;;;;12.68;4.50;;;;;;;19.49;60.60;93691.53;5064553;28;20037;-75
2022/08/17 02:40:19;;;;;;;8.07;4.20;;;;;;;19.41;61.03;93690.69;5064670;28;20034;-76
2022/08/17 02:42:45;;;;;;;8.48;4.30;;;;;;;19.40;61.74;93689.91;5065025;28;20036;-76
2022/08/17 02:45:17;;;;;;;8.13;3.80;;;;;;;19.39;61.96;93685.66;5064652;28;20021;-76
2022/08/17 02:47:44;;;;;;;11.73;4.30;;;;;;;19.33;62.04;93689.84;5064404;28;20036;-75
2022/08/17 02:50:11;;;;;;;8.00;3.88;;;;;;;19.29;61.65;93686.31;5064333;28;20032;-75
2022/08/17 02:52:40;;;;;;;6.50;3.78;;;;;;;19.25;61.37;93690.91;5064490;28;20250;-75
2022/08/17 02:55:08;;;;;;;13.70;4.35;;;;;;;19.20;61.47;93692.03;5064389;28;20029;-75
2022/08/17 02:57:35;;;;;;;8.75;4.15;;;;;;;19.17;61.97;93695.50;5064166;28;20025;-75
2022/08/17 03:00:08;;;;;;;7.43;4.28;;;;;;;19.11;61.53;93688.09;5064147;28;20024;-76
2022/08/17 03:02:37;;;;;;;6.88;4.05;;;;;;;19.01;61.42;93689.53;5064133;28;20029;-75
2022/08/17 03:05:03;;;;;;;9.23;4.25;;;;;;;18.97;61.88;93697.63;5064258;28;20021;-76
2022/08/17 03:07:29;;;;;;;7.85;4.10;;;;;;;18.95;62.25;93697.22;5064177;28;20418;-76
2022/08/17 03:09:55;;;;;;;9.85;4.90;;;;;;;18.96;62.26;93697.97;5064151;28;20024;-76
2022/08/17 03:12:20;;;;;;;13.20;4.40;;;;;;;18.95;62.36;93699.09;5064097;28;20012;-76
2022/08/17 03:14:46;;;;;;;9.02;3.97;;;;;;;18.96;62.43;93697.97;5064018;28;20025;-76
2022/08/17 03:17:11;;;;;;;5.93;4.25;;;;;;;18.94;62.75;93709.13;5063922;28;20326;-76
2022/08/17 03:19:37;;;;;;;10.20;4.70;;;;;;;18.96;62.75;93698.75;5064027;28;20051;-76
2022/08/17 03:22:07;;;;;;;5.97;3.47;;;;;;;18.95;62.90;93710.72;5063792;28;20028;-76
2022/08/17 03:24:32;;;;;;;11.02;4.75;;;;;;;18.92;62.95;93711.44;5063698;28;20020;-76
2022/08/17 03:26:58;;;;;;;7.32;4.22;;;;;;;18.88;62.99;93713.31;5063783;28;20020;-76
2022/08/17 03:29:23;;;;;;;9.88;4.57;;;;;;;18.87;63.04;93713.69;5063613;28;20032;-76
2022/08/17 03:31:49;;;;;;;7.32;4.68;;;;;;;18.84;63.22;93707.88;5063787;28;20017;-76
2022/08/17 03:34:15;;;;;;;7.35;4.50;;;;;;;18.83;63.62;93703.63;5063656;28;20020;-75
2022/08/17 03:36:41;;;;;;;11.63;4.55;;;;;;;18.84;63.73;93712.50;5063353;28;20039;-76
2022/08/17 03:39:07;;;;;;;6.28;4.25;;;;;;;18.81;63.89;93707.84;5063536;28;20025;-76
2022/08/17 03:41:32;;;;;;;9.70;4.80;;;;;;;18.78;64.20;93719.34;5063512;28;20025;-76
2022/08/17 03:43:58;;;;;;;9.38;4.47;;;;;;;18.80;64.66;93717.09;5063308;28;20031;-76
2022/08/17 03:57:23;;;;;;;7.60;4.22;;;;;;;18.74;63.58;93729.31;5063374;28;20025;-76
2022/08/17 03:59:49;;;;;;;7.25;4.10;;;;;;;18.74;64.34;93729.31;5062176;28;20021;-76
2022/08/17 04:02:18;;;;;;;6.65;3.90;;;;;;;18.71;64.50;93727.38;5062881;28;20051;-76
2022/08/17 04:04:44;;;;;;;7.75;4.32;;;;;;;18.72;64.29;93726.22;5062987;28;20048;-75
2022/08/17 04:07:09;;;;;;;8.73;4.30;;;;;;;18.73;64.40;93725.84;5063007;28;20024;-75
2022/08/17 04:09:35;;;;;;;6.35;4.57;;;;;;;18.75;64.84;93730.88;5062851;28;20319;-76
2022/08/17 04:12:01;;;;;;;10.88;4.68;;;;;;;18.79;65.06;93729.03;5062754;28;20013;-75
2022/08/17 04:14:26;;;;;;;8.73;4.60;;;;;;;18.81;65.06;93729.44;5062898;28;20017;-75
2022/08/17 04:16:52;;;;;;;9.90;5.47;;;;;;;18.82;65.37;93737.16;5062695;28;20260;-75
2022/08/17 04:19:17;;;;;;;8.48;4.88;;;;;;;18.84;64.90;93740.28;5062872;28;20020;-75
2022/08/17 04:21:43;;;;;;;11.98;5.10;;;;;;;18.86;64.69;93737.22;5062782;28;20288;-75
2022/08/17 04:24:08;;;;;;;16.20;5.40;;;;;;;18.93;64.90;93747.31;5062719;28;20094;-75
2022/08/17 04:26:34;;;;;;;20.58;6.53;;;;;;;18.94;65.06;93746.19;5062633;28;20047;-80
2022/08/17 04:28:59;;;;;;;13.80;5.80;;;;;;;18.99;65.35;93757.44;5061795;28;20357;-79
2022/08/17 04:31:26;;;;;;;13.85;6.07;;;;;;;19.05;64.90;93749.78;5062943;28;20021;-80
2022/08/17 04:33:53;;;;;;;12.80;6.03;;;;;;;19.11;65.21;93744.81;5062758;28;20021;-79
2022/08/17 04:36:19;;;;;;;14.15;6.00;;;;;;;19.16;65.24;93755.31;5062720;28;20020;-80
2022/08/17 04:38:45;;;;;;;15.52;6.72;;;;;;;19.16;64.88;93749.91;5062280;28;20017;-81
2022/08/17 04:43:57;;;;;;;11.15;6.00;;;;;;;19.24;65.00;93756.94;5062823;28;20024;-78
2022/08/17 04:46:25;;;;;;;9.90;6.28;;;;;;;19.30;64.73;93763.56;5062729;28;20051;-78
2022/08/17 04:48:54;;;;;;;17.00;7.30;;;;;;;19.28;65.25;93767.78;5062681;28;20371;-79
2022/08/17 04:51:24;;;;;;;12.05;5.90;;;;;;;19.31;65.20;93770.50;5062894;28;20013;-78
2022/08/17 04:53:55;;;;;;;24.05;7.00;;;;;;;19.27;64.98;93771.63;5062832;28;20025;-79
2022/08/17 04:56:22;;;;;;;20.10;6.43;;;;;;;19.30;65.60;93774.38;5062738;28;20063;-80
2022/08/17 04:58:49;;;;;;;18.17;6.78;;;;;;;19.37;66.29;93776.34;5062597;28;20025;-81
2022/08/17 05:01:16;;;;;;;12.15;6.68;;;;;;;19.35;65.59;93771.31;5063363;28;20068;-79
2022/08/17 05:03:42;;;;;;;14.65;6.72;;;;;;;19.37;65.20;93771.72;5066427;28;20028;-79
2022/08/17 05:06:08;;;;;;;19.52;6.63;;;;;;;19.42;65.79;93771.41;5066254;28;20322;-79
2022/08/17 05:08:34;;;;;;;23.05;7.50;;;;;;;19.49;65.13;93764.50;5066402;28;20025;-80
2022/08/17 05:11:00;;;;;;;18.73;7.85;;;;;;;19.52;65.31;93767.25;5066424;28;20017;-78
2022/08/17 05:13:30;;;;;;;14.07;6.97;;;;;;;19.60;64.85;93768.06;5066563;28;20091;-83
2022/08/17 05:16:00;;;;;;;13.57;6.53;;;;;;;19.69;64.46;93768.56;5066670;28;20059;-84
2022/08/17 05:18:27;;;;;;;10.23;6.85;;;;;;;19.75;64.45;93769.78;5066549;28;20025;-82
2022/08/17 05:20:53;;;;;;;14.05;6.95;;;;;;;19.79;64.24;93770.59;5066724;28;20028;-84
2022/08/17 05:23:20;;;;;;;10.90;6.88;;;;;;;19.89;63.27;93773.78;5066530;28;20256;-83
2022/08/17 05:25:49;;;;;;;16.10;7.03;;;;;;;19.90;63.26;93773.38;5066455;28;20021;-83
2022/08/17 05:28:17;;;;;;;13.98;7.40;;;;;;;19.97;63.26;93776.16;5066385;28;20246;-84
2022/08/17 05:30:43;;;;;;;18.08;7.03;;;;;;;20.00;63.79;93778.09;5065865;28;20087;-83
2022/08/17 05:33:15;;;;;;;13.27;7.53;;;;;;;20.03;63.12;93779.31;5066806;28;20289;-83
2022/08/17 05:35:53;;;;;;;25.00;7.20;;;;;;;20.02;62.89;93772.31;5066050;28;20044;-81
2022/08/17 05:38:21;;;;;;;13.73;6.85;;;;;;;20.01;62.99;93776.19;5065768;28;20195;-82
2022/08/17 05:40:47;;;;;;;23.55;7.85;;;;;;;20.11;63.00;93780.13;5065717;28;20032;-81
2022/08/17 05:43:26;;;;;;;13.88;6.50;;;;;;;20.13;62.45;93788.63;5065925;28;20051;-83
2022/08/17 05:46:06;;;;;;;13.20;7.00;;;;;;;20.17;62.03;93784.03;5066112;28;20227;-86
2022/08/17 05:48:38;;;;;;;12.27;7.55;;;;;;;20.21;62.06;93780.22;5065766;28;20020;-86
2022/08/17 05:51:10;;;;;;;22.60;6.97;;;;;;;20.27;62.43;93783.31;5065551;28;20017;-84
2022/08/17 05:54:06;;;;;;;13.38;7.85;;;;;;;20.28;61.41;93778.72;5065541;28;20035;-85
2022/08/17 05:57:00;;;;;;;22.85;7.28;;;;;;;20.33;60.90;93783.75;5065566;28;20028;-84
2022/08/17 05:59:36;;;;;;;15.77;7.50;;;;;;;20.32;60.92;93776.81;5064471;28;20037;-84
2022/08/17 06:02:21;;;;;;;12.75;6.93;;;;;;;20.31;61.32;93777.94;5065288;28;20430;-84
2022/08/17 06:04:49;;;;;;;26.27;8.48;;;;;;;20.46;61.01;93776.91;5065408;28;20033;-85
2022/08/17 06:07:44;;;;;;;22.25;8.45;;;;;;;20.57;60.15;93779.66;5065200;28;20280;-86
2022/08/17 06:10:13;;;;;;;16.10;9.05;;;;;;;20.62;60.43;93780.09;5061201;28;20323;-85
2022/08/17 06:13:03;;;;;;;31.48;9.20;;;;;;;20.71;59.96;93773.56;5064358;28;20046;-86
2022/08/17 06:15:31;;;;;;;19.20;7.88;;;;;;;20.80;58.76;93782.13;5065112;28;20327;-83
2022/08/17 06:18:04;;;;;;;15.30;6.90;;;;;;;20.82;58.95;93777.09;5064908;28;20044;-78
2022/08/17 06:20:55;;;;;;;24.77;7.40;;;;;;;20.92;59.19;93776.38;5065212;28;20029;-83
2022/08/17 06:23:31;;;;;;;31.70;6.95;;;;;;;20.96;58.79;93777.16;5065254;28;20024;-86
2022/08/17 06:26:02;;;;;;;21.42;8.52;;;;;;;21.08;58.44;93776.03;5063817;28;20045;-86
2022/08/17 06:28:42;;;;;;;25.37;10.17;;;;;;;21.20;58.29;93778.41;5065527;28;20024;-93
2022/08/17 06:31:21;;;;;;;34.00;14.38;;;;;;;21.28;58.45;93779.22;5065338;28;20020;-84
2022/08/17 06:33:47;;;;;;;21.55;8.55;;;;;;;21.37;58.37;93784.25;5064908;28;20025;-85
2022/08/17 06:36:31;;;;;;;17.52;8.52;;;;;;;21.46;58.18;93778.53;5064803;28;20371;-86
2022/08/17 06:39:03;;;;;;;25.27;8.07;;;;;;;21.55;57.50;93781.63;5064697;28;20032;-84
2022/08/17 06:41:59;;;;;;;20.52;8.02;;;;;;;21.63;58.25;93778.53;5064361;28;20055;-85
2022/08/17 06:44:28;;;;;;;16.50;6.93;;;;;;;21.72;57.79;93782.84;5064875;28;20096;-88
2022/08/17 06:47:12;;;;;;;15.55;8.05;;;;;;;21.77;56.71;93785.16;5063998;28;20342;-87
2022/08/17 06:50:01;;;;;;;20.40;8.25;;;;;;;21.82;57.42;93785.56;5064037;28;20037;-86
2022/08/17 06:52:33;;;;;;;16.95;7.88;;;;;;;21.90;57.32;93780.13;5064340;28;20027;-89
2022/08/17 06:55:12;;;;;;;14.83;6.80;;;;;;;21.96;57.47;93776.66;5064818;28;20037;-85
2022/08/17 06:57:46;;;;;;;16.63;9.00;;;;;;;22.08;56.84;93778.19;5065396;28;20028;-88
2022/08/17 07:00:15;;;;;;;20.42;7.95;;;;;;;22.19;56.33;93781.69;5065149;28;20024;-91
2022/08/17 07:02:58;;;;;;;18.27;7.03;;;;;;;22.31;56.36;93772.41;5065039;28;20029;-76
2022/08/17 07:05:32;;;;;;;15.85;6.97;;;;;;;22.37;55.50;93775.50;5064500;28;20122;-80
2022/08/17 07:08:24;;;;;;;17.70;7.97;;;;;;;22.47;55.79;93780.16;5064635;28;20029;-87
2022/08/17 07:10:56;;;;;;;21.65;7.47;;;;;;;22.61;55.85;93774.69;5056265;28;20056;-83
2022/08/17 07:13:43;;;;;;;23.40;9.02;;;;;;;22.77;55.20;93776.19;5063933;28;20075;-87
2022/08/17 07:16:18;;;;;;;14.05;6.78;;;;;;;22.91;54.87;93781.56;5065041;28;20187;-91
2022/08/17 07:18:45;;;;;;;21.88;8.15;;;;;;;23.03;53.95;93783.13;5063937;28;20274;-86
2022/08/17 07:21:28;;;;;;;17.92;6.57;;;;;;;23.18;52.84;93783.81;5065422;28;20025;-90
2022/08/17 07:24:29;;;;;;;20.77;6.82;;;;;;;23.30;52.29;93775.22;5065222;28;20092;-85
2022/08/17 07:27:41;;;;;;;17.58;6.28;;;;;;;23.37;52.76;93777.16;5062698;28;20020;-88
2022/08/17 07:30:08;;;;;;;21.73;5.93;;;;;;;23.48;51.86;93785.25;5062770;28;20036;-83
2022/08/17 07:32:44;;;;;;;18.05;6.40;;;;;;;23.46;51.51;93784.88;5064678;28;20021;-94
2022/08/17 07:35:15;;;;;;;18.83;5.80;;;;;;;23.59;51.85;93781.31;5063084;28;20039;-90
2022/08/17 07:37:54;;;;;;;13.88;5.75;;;;;;;23.63;51.16;93784.78;5064480;28;20028;-93
2022/08/17 07:40:22;;;;;;;18.75;5.10;;;;;;;23.75;50.61;93778.09;5065287;28;20100;-93
2022/08/17 07:43:25;;;;;;;14.23;5.45;;;;;;;23.91;51.08;93785.00;5064144;28;20103;-85
2022/08/17 07:49:14;;;;;;;12.45;4.78;;;;;;;24.16;49.14;93771.97;5063821;28;19912;-82
2022/08/17 07:51:43;;;;;;;18.48;4.90;;;;;;;24.35;48.51;93780.78;5063291;28;20021;-82
2022/08/17 07:54:14;;;;;;;12.45;4.78;;;;;;;24.45;48.58;93774.44;5063449;28;20337;-83
2022/08/17 07:56:45;;;;;;;14.40;5.63;;;;;;;24.63;47.31;93785.97;5063491;28;20092;-82
2022/08/17 07:59:20;;;;;;;14.68;5.20;;;;;;;24.73;47.22;93778.88;5062177;28;20025;-84
2022/08/17 08:02:06;;;;;;;15.88;5.00;;;;;;;24.82;46.89;93790.06;5063468;28;20030;-85
2022/08/17 08:04:42;;;;;;;18.65;5.82;;;;;;;24.92;46.57;93769.31;5063186;28;20028;-89
2022/08/17 08:07:23;;;;;;;10.75;4.50;;;;;;;24.96;46.28;93764.59;5063351;28;20028;-81
2022/08/17 08:09:58;;;;;;;11.00;4.10;;;;;;;24.95;46.46;93760.34;5063341;28;20024;-88
2022/08/17 08:12:40;;;;;;;15.70;5.13;;;;;;;25.03;45.80;93763.72;5063504;28;20024;-86
2022/08/17 08:15:16;;;;;;;;;;;;;;;25.17;45.12;93769.00;5063204;28;20055;-90
2022/08/17 08:17:54;;;;;;;12.55;4.70;;;;;;;25.26;44.69;93765.84;5063791;28;19915;-93
2022/08/17 08:21:00;;;;;;;8.90;4.35;;;;;;;25.36;44.63;93769.59;5064030;28;20082;-90
2022/08/17 08:23:32;;;;;;;8.18;4.68;;;;;;;25.46;45.40;93765.19;5062420;28;20057;-93
2022/08/17 08:26:35;;;;;;;14.40;4.82;;;;;;;25.61;44.87;93752.91;5063932;28;20315;-92
2022/08/17 08:29:33;;;;;;;11.68;4.07;;;;;;;25.74;43.58;93758.56;5064095;28;20069;-93
2022/08/17 08:32:11;;;;;;;12.88;3.88;;;;;;;25.81;43.15;93756.50;5064183;28;20025;-93
2022/08/17 08:34:44;;;;;;;14.40;4.07;;;;;;;25.94;42.61;93753.22;5064668;28;20100;-95
2022/08/17 08:37:19;;;;;;;6.30;4.25;;;;;;;26.06;42.67;93752.63;5063779;28;20029;-92
2022/08/17 08:40:07;;;;;;;5.43;3.50;;;;;;;26.17;41.38;93755.94;5062621;28;20025;-90
2022/08/17 08:42:35;;;;;;;8.18;3.83;;;;;;;26.12;42.24;93748.25;5063231;28;20043;-88
2022/08/17 08:45:27;;;;;;;;;;;;;;;;;;;;;
2022/08/17 08:48:18;;;;;;;9.20;3.72;;;;;;;26.00;40.47;93757.03;5391187;22;21613;-92
2022/08/17 08:51:18;;;;;;;9.35;3.15;;;;;;;26.15;39.43;93755.59;5035356;28;20040;-89
2022/08/17 08:53:44;;;;;;;7.53;2.95;;;;;;;26.19;39.85;93737.19;5273545;22;20117;-95
2022/08/17 08:56:18;;;;;;;5.78;2.55;;;;;;;26.32;38.61;93745.56;5025118;28;20347;-92
2022/08/17 08:59:00;;;;;;;8.45;2.97;;;;;;;26.20;37.19;93746.94;5029767;28;20077;-89
2022/08/17 09:01:46;;;;;;;7.68;2.72;;;;;;;26.18;36.68;93745.81;5027736;28;20014;-94
2022/08/17 09:04:34;;;;;;;4.78;2.65;;;;;;;26.15;36.46;93746.63;5028502;28;20068;-87
2022/08/17 09:07:05;;;;;;;13.57;2.83;;;;;;;26.26;36.94;93749.97;5028318;28;20025;-95
2022/08/17 09:09:56;;;;;;;5.13;2.30;;;;;;;26.42;36.39;93741.13;5027314;28;20025;-90
2022/08/17 09:12:30;;;;;;;4.63;2.40;;;;;;;26.53;36.38;93741.69;5025669;28;20045;-90
2022/08/17 09:15:02;;;;;;;9.63;3.05;;;;;;;26.71;35.71;93741.38;5023014;28;20088;-91
2022/08/17 09:17:41;;;;;;;6.57;2.30;;;;;;;26.79;35.62;93750.22;5025577;28;20048;-94
2022/08/17 09:20:24;;;;;;;6.20;2.38;;;;;;;26.82;35.37;93743.91;5025665;28;20072;-88
2022/08/17 09:22:56;;;;;;;6.70;2.88;;;;;;;26.77;35.11;93744.41;5022592;28;20021;-89
2022/08/17 09:25:30;;;;;;;6.55;2.70;;;;;;;26.75;35.51;93750.28;5022769;28;20220;-92
2022/08/17 09:28:35;;;;;;;6.97;2.42;;;;;;;26.84;35.09;93757.16;5023502;28;20040;-87
2022/08/17 09:31:10;;;;;;;5.10;2.67;;;;;;;26.84;35.50;93755.19;5003158;28;20018;-93
2022/08/17 09:33:43;;;;;;;11.27;3.47;;;;;;;26.92;35.70;93742.94;5002111;28;20261;-81
2022/08/17 09:36:17;;;;;;;9.27;2.72;;;;;;;26.91;35.44;93755.06;5013720;28;20141;-84
2022/08/17 09:39:12;;;;;;;8.68;3.28;;;;;;;26.98;36.57;93737.75;5022867;28;20026;-84
2022/08/17 09:42:02;;;;;;;12.35;3.05;;;;;;;27.07;35.72;93735.22;5021371;28;20036;-85
2022/08/17 09:44:38;;;;;;;11.60;2.88;;;;;;;27.19;36.28;93748.28;5022257;28;20273;-85
2022/08/17 09:47:15;;;;;;;12.13;3.35;;;;;;;27.21;35.63;93750.56;5022815;28;20056;-84
2022/08/17 09:49:55;;;;;;;6.00;2.95;;;;;;;27.24;34.79;93749.00;5024217;28;20071;-84
2022/08/17 09:52:24;;;;;;;8.00;2.80;;;;;;;27.21;35.79;93739.63;5025178;28;20041;-85
2022/08/17 09:54:52;;;;;;;10.77;2.67;;;;;;;27.35;36.57;93747.56;5025788;28;20042;-85
2022/08/17 09:57:29;;;;;;;6.65;2.40;;;;;;;27.40;35.89;93738.88;5025974;28;20267;-86
2022/08/17 10:00:14;;;;;;;6.57;3.05;;;;;;;27.38;34.77;93737.75;5025699;28;20029;-85
2022/08/17 10:02:59;;;;;;;8.63;2.42;;;;;;;27.45;35.60;93729.38;5025624;28;20347;-88
2022/08/17 10:05:54;;;;;;;6.25;2.70;;;;;;;27.53;34.25;93733.50;5025567;28;20037;-86
2022/08/17 10:08:32;;;;;;;4.32;2.75;;;;;;;27.44;35.66;93735.25;5023823;28;20037;-86
2022/08/17 10:11:17;;;;;;;5.43;3.03;;;;;;;27.48;35.26;93730.47;5025634;28;20092;-87
2022/08/17 10:14:12;;;;;;;9.27;3.30;;;;;;;27.55;34.63;93724.88;5025412;28;20036;-85
2022/08/17 10:16:48;;;;;;;7.05;2.92;;;;;;;27.65;34.50;93721.09;5025385;28;20033;-85
2022/08/17 10:19:13;;;;;;;4.55;2.47;;;;;;;27.70;33.50;93728.84;5027026;28;20098;-87
2022/08/17 10:27:25;;;;;;;7.75;2.22;;;;;;;27.94;33.13;93721.22;5025294;28;20215;-86
2022/08/17 10:29:54;;;;;;;5.07;2.58;;;;;;;27.93;34.62;93724.44;5024370;28;20324;-85
2022/08/17 10:32:46;;;;;;;8.63;2.92;;;;;;;28.03;33.76;93728.88;5025419;28;20046;-85
2022/08/17 10:35:17;;;;;;;4.15;2.47;;;;;;;27.89;33.96;93721.75;5025178;28;20056;-87
2022/08/17 10:38:01;;;;;;;7.22;3.30;;;;;;;27.90;34.62;93725.25;5025321;28;20370;-90
2022/08/17 10:40:49;;;;;;;7.57;2.50;;;;;;;27.85;34.88;93714.81;5024061;28;20216;-82
2022/08/17 10:43:33;;;;;;;7.32;3.05;;;;;;;27.91;32.49;93713.88;5025071;28;20030;-79
2022/08/17 10:46:14;;;;;;;8.05;2.78;;;;;;;27.91;32.65;93719.38;5025095;28;20320;-78
2022/08/17 10:48:41;;;;;;;6.35;2.78;;;;;;;27.86;31.88;93708.13;5024689;28;20255;-80
2022/08/17 10:51:36;;;;;;;8.25;2.70;;;;;;;27.88;32.96;93722.19;5024833;28;20093;-82
2022/08/17 10:54:26;;;;;;;9.73;2.58;;;;;;;27.97;31.98;93714.16;5024442;28;20236;-82
2022/08/17 10:56:54;;;;;;;9.80;2.72;;;;;;;27.99;32.58;93717.22;5024744;28;20216;-81
2022/08/17 10:59:34;;;;;;;9.90;2.72;;;;;;;28.05;32.33;93699.09;5024350;28;20097;-84
2022/08/17 11:02:03;;;;;;;7.88;2.47;;;;;;;28.16;32.02;93698.81;5024591;28;20022;-79
2022/08/17 11:04:34;;;;;;;7.85;3.38;;;;;;;28.32;32.85;93706.25;5024584;28;20018;-86
2022/08/17 11:07:05;;;;;;;13.07;3.17;;;;;;;28.37;29.66;93703.75;5024820;28;20033;-84
2022/08/17 11:09:42;;;;;;;6.63;3.50;;;;;;;28.40;29.78;93693.91;5025582;28;20025;-83
2022/08/17 11:12:22;;;;;;;3.67;2.20;;;;;;;28.34;30.70;93701.88;5024247;28;20026;-85
2022/08/17 11:15:11;;;;;;;5.15;2.67;;;;;;;28.36;30.90;93687.72;5026344;28;20056;-90
2022/08/17 11:17:52;;;;;;;6.68;2.35;;;;;;;28.53;28.90;93700.22;5024582;28;20049;-85
2022/08/17 11:20:55;;;;;;;6.40;2.40;;;;;;;28.61;30.05;93689.84;5024404;28;20033;-87
2022/08/17 11:23:56;;;;;;;5.50;2.47;;;;;;;28.69;29.26;93706.88;5024361;28;20030;-82
2022/08/17 11:26:33;;;;;;;5.13;2.67;;;;;;;28.79;29.59;93717.53;5024317;28;20049;-84
2022/08/17 11:29:04;;;;;;;5.10;2.30;;;;;;;28.78;28.39;93704.25;5024077;28;20255;-92
2022/08/17 11:31:36;;;;;;;6.20;2.83;;;;;;;28.77;29.59;93689.78;5023921;28;20324;-82
2022/08/17 11:34:17;;;;;;;13.15;3.05;;;;;;;28.81;28.47;93709.66;5023204;28;20030;-82
2022/08/17 11:37:01;;;;;;;5.30;2.40;;;;;;;28.79;27.98;93700.31;5022671;28;20025;-83
2022/08/17 11:39:41;;;;;;;8.77;2.63;;;;;;;28.82;27.83;93704.91;5023949;28;20041;-83
2022/08/17 11:42:45;;;;;;;6.38;1.90;;;;;;;28.84;28.27;93708.00;5023680;28;20034;-83
2022/08/17 11:45:35;;;;;;;7.30;3.55;;;;;;;28.97;28.16;93714.31;5023484;28;20026;-83
2022/08/17 11:51:34;;;;;;;5.53;2.72;;;;;;;28.83;29.69;93705.72;5023742;28;20037;-80
2022/08/17 11:54:04;;;;;;;4.82;2.17;;;;;;;28.84;28.58;93713.50;5023416;28;20276;-84
2022/08/17 11:56:50;;;;;;;8.63;2.95;;;;;;;29.00;27.88;93705.22;5023482;28;20263;-86
2022/08/17 11:59:43;;;;;;;17.08;3.85;;;;;;;29.09;33.84;93714.78;5023419;28;20033;-86
2022/08/17 12:02:29;;;;;;;11.48;3.67;;;;;;;29.22;34.60;93712.84;5015181;28;20041;-79
2022/08/17 12:05:13;;;;;;;13.10;3.42;;;;;;;29.36;34.33;93726.16;5023765;28;20033;-82
2022/08/17 12:07:44;;;;;;;10.93;3.85;;;;;;;29.33;34.59;93721.56;5023606;28;20026;-79
2022/08/17 12:10:11;;;;;;;14.18;3.47;;;;;;;29.35;34.46;93713.66;5022147;28;20021;-80
2022/08/17 12:12:42;;;;;;;10.68;4.15;;;;;;;29.33;34.84;93718.81;5022664;28;20018;-77
2022/08/17 12:15:16;;;;;;;7.78;3.67;;;;;;;29.34;35.07;93723.06;5023495;28;20022;-77
2022/08/17 12:17:50;;;;;;;16.33;3.67;;;;;;;29.29;34.58;93737.34;5023277;28;20209;-78
2022/08/17 12:20:32;;;;;;;12.88;4.35;;;;;;;29.35;35.16;93732.06;5023211;28;20092;-81
2022/08/17 12:23:06;;;;;;;5.03;3.47;;;;;;;29.41;34.22;93738.56;5023297;28;20026;-80
2022/08/17 12:25:41;;;;;;;9.52;3.58;;;;;;;29.34;34.61;93733.28;5023237;28;20049;-83
2022/08/17 12:28:37;;;;;;;8.02;2.92;;;;;;;29.43;33.79;93729.91;5022083;28;20033;-82
2022/08/17 12:31:25;;;;;;;8.32;3.72;;;;;;;29.36;34.40;93734.38;5018853;28;20045;-84